sensor_id;sensor_type;location;lat;lon;timestamp;P1;durP1;ratioP1;P2;durP2;ratioP2
83199;SDS011;73092;49.132;8.920;2023-12-07T00:00:33;42.37;;;20.10;;
83199;SDS011;73092;49.132;8.920;2023-12-07T00:02:58;45.40;;;20.33;;
83199;SDS011;73092;49.132;8.920;2023-12-07T00:05:24;53.05;;;23.60;;
83199;SDS011;73092;49.132;8.920;2023-12-07T00:07:50;47.90;;;22.13;;
83199;SDS011;73092;49.132;8.920;2023-12-07T00:10:15;46.43;;;20.33;;
83199;SDS011;73092;49.132;8.920;2023-12-07T00:12:41;42.57;;;18.00;;
83199;SDS011;73092;49.132;8.920;2023-12-07T00:15:06;37.55;;;17.10;;
83199;SDS011;73092;49.132;8.920;2023-12-07T00:17:32;42.60;;;19.60;;
83199;SDS011;73092;49.132;8.920;2023-12-07T00:19:57;47.23;;;20.83;;
83199;SDS011;73092;49.132;8.920;2023-12-07T00:22:23;45.50;;;19.67;;
83199;SDS011;73092;49.132;8.920;2023-12-07T00:24:49;38.22;;;18.98;;
83199;SDS011;73092;49.132;8.920;2023-12-07T00:27:15;43.33;;;20.23;;
83199;SDS011;73092;49.132;8.920;2023-12-07T00:29:40;39.73;;;19.37;;
83199;SDS011;73092;49.132;8.920;2023-12-07T00:32:05;44.87;;;21.10;;
83199;SDS011;73092;49.132;8.920;2023-12-07T00:34:31;44.50;;;20.27;;
83199;SDS011;73092;49.132;8.920;2023-12-07T00:36:56;47.23;;;22.53;;
83199;SDS011;73092;49.132;8.920;2023-12-07T00:39:21;43.23;;;20.53;;
83199;SDS011;73092;49.132;8.920;2023-12-07T00:41:47;45.03;;;19.77;;
83199;SDS011;73092;49.132;8.920;2023-12-07T00:44:13;47.28;;;18.92;;
83199;SDS011;73092;49.132;8.920;2023-12-07T00:46:39;46.83;;;21.60;;
83199;SDS011;73092;49.132;8.920;2023-12-07T00:49:05;39.00;;;16.88;;
83199;SDS011;73092;49.132;8.920;2023-12-07T00:51:30;39.40;;;17.73;;
83199;SDS011;73092;49.132;8.920;2023-12-07T00:53:55;42.13;;;19.40;;
83199;SDS011;73092;49.132;8.920;2023-12-07T00:56:21;37.00;;;18.37;;
83199;SDS011;73092;49.132;8.920;2023-12-07T00:58:46;42.83;;;18.97;;
83199;SDS011;73092;49.132;8.920;2023-12-07T01:01:11;45.13;;;19.17;;
83199;SDS011;73092;49.132;8.920;2023-12-07T01:03:37;39.72;;;19.55;;
83199;SDS011;73092;49.132;8.920;2023-12-07T01:06:05;43.42;;;18.23;;
83199;SDS011;73092;49.132;8.920;2023-12-07T01:08:31;42.75;;;19.90;;
83199;SDS011;73092;49.132;8.920;2023-12-07T01:10:56;38.67;;;18.33;;
83199;SDS011;73092;49.132;8.920;2023-12-07T01:13:22;41.05;;;19.58;;
83199;SDS011;73092;49.132;8.920;2023-12-07T01:15:48;39.33;;;19.90;;
83199;SDS011;73092;49.132;8.920;2023-12-07T01:18:14;44.72;;;20.35;;
83199;SDS011;73092;49.132;8.920;2023-12-07T01:20:40;43.15;;;18.25;;
83199;SDS011;73092;49.132;8.920;2023-12-07T01:23:05;46.23;;;19.50;;
83199;SDS011;73092;49.132;8.920;2023-12-07T01:25:31;44.60;;;20.55;;
83199;SDS011;73092;49.132;8.920;2023-12-07T01:27:56;40.72;;;17.73;;
83199;SDS011;73092;49.132;8.920;2023-12-07T01:30:21;38.57;;;17.73;;
83199;SDS011;73092;49.132;8.920;2023-12-07T01:32:47;46.40;;;19.00;;
83199;SDS011;73092;49.132;8.920;2023-12-07T01:35:13;43.75;;;18.80;;
83199;SDS011;73092;49.132;8.920;2023-12-07T01:37:39;45.03;;;18.67;;
83199;SDS011;73092;49.132;8.920;2023-12-07T01:40:05;42.10;;;16.33;;
83199;SDS011;73092;49.132;8.920;2023-12-07T01:42:34;41.75;;;18.08;;
83199;SDS011;73092;49.132;8.920;2023-12-07T01:44:59;41.67;;;21.13;;
83199;SDS011;73092;49.132;8.920;2023-12-07T01:47:25;39.30;;;18.93;;
83199;SDS011;73092;49.132;8.920;2023-12-07T01:49:51;34.95;;;15.95;;
83199;SDS011;73092;49.132;8.920;2023-12-07T01:52:17;45.78;;;17.95;;
83199;SDS011;73092;49.132;8.920;2023-12-07T01:54:42;43.33;;;17.65;;
83199;SDS011;73092;49.132;8.920;2023-12-07T01:57:08;46.40;;;17.88;;
83199;SDS011;73092;49.132;8.920;2023-12-07T01:59:33;46.20;;;18.37;;
83199;SDS011;73092;49.132;8.920;2023-12-07T02:01:59;42.65;;;17.77;;
83199;SDS011;73092;49.132;8.920;2023-12-07T02:04:25;37.47;;;16.75;;
83199;SDS011;73092;49.132;8.920;2023-12-07T02:06:51;47.10;;;19.00;;
83199;SDS011;73092;49.132;8.920;2023-12-07T02:09:19;32.92;;;15.07;;
83199;SDS011;73092;49.132;8.920;2023-12-07T02:11:44;36.65;;;16.63;;
83199;SDS011;73092;49.132;8.920;2023-12-07T02:14:10;29.90;;;14.70;;
83199;SDS011;73092;49.132;8.920;2023-12-07T02:16:43;39.88;;;15.73;;
83199;SDS011;73092;49.132;8.920;2023-12-07T02:22:37;34.63;;;12.27;;
83199;SDS011;73092;49.132;8.920;2023-12-07T02:25:07;29.50;;;13.13;;
83199;SDS011;73092;49.132;8.920;2023-12-07T02:27:34;36.17;;;13.90;;
83199;SDS011;73092;49.132;8.920;2023-12-07T02:30:07;34.88;;;14.75;;
83199;SDS011;73092;49.132;8.920;2023-12-07T02:32:35;29.83;;;14.60;;
83199;SDS011;73092;49.132;8.920;2023-12-07T02:35:02;31.80;;;14.05;;
83199;SDS011;73092;49.132;8.920;2023-12-07T02:37:27;42.60;;;16.42;;
83199;SDS011;73092;49.132;8.920;2023-12-07T02:39:57;45.15;;;14.63;;
83199;SDS011;73092;49.132;8.920;2023-12-07T02:42:23;34.50;;;17.25;;
83199;SDS011;73092;49.132;8.920;2023-12-07T02:47:18;34.15;;;14.18;;
83199;SDS011;73092;49.132;8.920;2023-12-07T02:49:44;40.97;;;15.40;;
83199;SDS011;73092;49.132;8.920;2023-12-07T02:52:09;37.97;;;15.00;;
83199;SDS011;73092;49.132;8.920;2023-12-07T02:54:35;38.55;;;14.85;;
83199;SDS011;73092;49.132;8.920;2023-12-07T02:57:00;39.13;;;15.23;;
83199;SDS011;73092;49.132;8.920;2023-12-07T02:59:25;43.93;;;16.87;;
83199;SDS011;73092;49.132;8.920;2023-12-07T03:01:51;47.97;;;19.50;;
83199;SDS011;73092;49.132;8.920;2023-12-07T03:04:16;33.97;;;13.90;;
83199;SDS011;73092;49.132;8.920;2023-12-07T03:06:41;42.60;;;16.17;;
83199;SDS011;73092;49.132;8.920;2023-12-07T03:09:07;35.27;;;14.23;;
83199;SDS011;73092;49.132;8.920;2023-12-07T03:11:32;36.43;;;15.23;;
83199;SDS011;73092;49.132;8.920;2023-12-07T03:13:57;33.95;;;13.88;;
83199;SDS011;73092;49.132;8.920;2023-12-07T03:16:23;29.47;;;12.63;;
83199;SDS011;73092;49.132;8.920;2023-12-07T03:18:48;28.53;;;13.97;;
83199;SDS011;73092;49.132;8.920;2023-12-07T03:21:13;31.60;;;12.90;;
83199;SDS011;73092;49.132;8.920;2023-12-07T03:23:39;27.80;;;13.50;;
83199;SDS011;73092;49.132;8.920;2023-12-07T03:26:04;32.40;;;11.70;;
83199;SDS011;73092;49.132;8.920;2023-12-07T03:28:30;35.00;;;13.45;;
83199;SDS011;73092;49.132;8.920;2023-12-07T03:30:55;32.43;;;13.80;;
83199;SDS011;73092;49.132;8.920;2023-12-07T03:33:20;35.77;;;13.37;;
83199;SDS011;73092;49.132;8.920;2023-12-07T03:35:46;36.63;;;15.43;;
83199;SDS011;73092;49.132;8.920;2023-12-07T03:38:11;34.57;;;14.47;;
83199;SDS011;73092;49.132;8.920;2023-12-07T03:40:36;34.03;;;13.30;;
83199;SDS011;73092;49.132;8.920;2023-12-07T03:43:02;39.00;;;14.80;;
83199;SDS011;73092;49.132;8.920;2023-12-07T03:45:29;39.58;;;15.95;;
83199;SDS011;73092;49.132;8.920;2023-12-07T03:47:54;37.60;;;16.03;;
83199;SDS011;73092;49.132;8.920;2023-12-07T03:50:20;39.88;;;15.88;;
83199;SDS011;73092;49.132;8.920;2023-12-07T03:52:46;36.90;;;13.73;;
83199;SDS011;73092;49.132;8.920;2023-12-07T03:55:11;37.13;;;15.07;;
83199;SDS011;73092;49.132;8.920;2023-12-07T03:57:37;39.80;;;14.00;;
83199;SDS011;73092;49.132;8.920;2023-12-07T04:00:02;35.27;;;15.30;;
83199;SDS011;73092;49.132;8.920;2023-12-07T04:02:29;42.08;;;14.55;;
83199;SDS011;73092;49.132;8.920;2023-12-07T04:04:58;37.00;;;14.55;;
83199;SDS011;73092;49.132;8.920;2023-12-07T04:07:26;33.40;;;17.15;;
83199;SDS011;73092;49.132;8.920;2023-12-07T04:09:52;36.78;;;13.98;;
83199;SDS011;73092;49.132;8.920;2023-12-07T04:12:17;36.47;;;13.83;;
83199;SDS011;73092;49.132;8.920;2023-12-07T04:14:43;34.83;;;14.53;;
83199;SDS011;73092;49.132;8.920;2023-12-07T04:17:08;28.37;;;13.63;;
83199;SDS011;73092;49.132;8.920;2023-12-07T04:19:35;32.67;;;13.38;;
83199;SDS011;73092;49.132;8.920;2023-12-07T04:22:00;31.98;;;13.85;;
83199;SDS011;73092;49.132;8.920;2023-12-07T04:24:26;38.03;;;13.73;;
83199;SDS011;73092;49.132;8.920;2023-12-07T04:26:51;38.33;;;14.57;;
83199;SDS011;73092;49.132;8.920;2023-12-07T04:29:16;38.40;;;14.70;;
83199;SDS011;73092;49.132;8.920;2023-12-07T04:31:42;37.13;;;15.20;;
83199;SDS011;73092;49.132;8.920;2023-12-07T04:34:07;36.00;;;13.40;;
83199;SDS011;73092;49.132;8.920;2023-12-07T04:36:32;42.37;;;17.23;;
83199;SDS011;73092;49.132;8.920;2023-12-07T04:38:58;42.97;;;15.03;;
83199;SDS011;73092;49.132;8.920;2023-12-07T04:41:23;38.40;;;15.87;;
83199;SDS011;73092;49.132;8.920;2023-12-07T04:43:48;41.63;;;14.20;;
83199;SDS011;73092;49.132;8.920;2023-12-07T04:46:13;33.47;;;13.90;;
83199;SDS011;73092;49.132;8.920;2023-12-07T04:48:39;32.73;;;14.93;;
83199;SDS011;73092;49.132;8.920;2023-12-07T04:51:05;37.92;;;14.32;;
83199;SDS011;73092;49.132;8.920;2023-12-07T04:53:30;29.98;;;14.90;;
83199;SDS011;73092;49.132;8.920;2023-12-07T04:55:56;47.33;;;16.50;;
83199;SDS011;73092;49.132;8.920;2023-12-07T04:58:21;34.10;;;13.52;;
83199;SDS011;73092;49.132;8.920;2023-12-07T05:00:46;40.17;;;14.90;;
83199;SDS011;73092;49.132;8.920;2023-12-07T05:03:12;35.88;;;14.75;;
83199;SDS011;73092;49.132;8.920;2023-12-07T05:05:37;42.03;;;16.20;;
83199;SDS011;73092;49.132;8.920;2023-12-07T05:08:03;38.87;;;17.00;;
83199;SDS011;73092;49.132;8.920;2023-12-07T05:10:28;43.63;;;16.13;;
83199;SDS011;73092;49.132;8.920;2023-12-07T05:12:53;40.40;;;17.30;;
83199;SDS011;73092;49.132;8.920;2023-12-07T05:15:19;41.38;;;16.50;;
83199;SDS011;73092;49.132;8.920;2023-12-07T05:17:44;37.70;;;17.23;;
83199;SDS011;73092;49.132;8.920;2023-12-07T05:20:10;41.87;;;15.97;;
83199;SDS011;73092;49.132;8.920;2023-12-07T05:22:37;40.17;;;16.10;;
83199;SDS011;73092;49.132;8.920;2023-12-07T05:25:03;39.42;;;15.88;;
83199;SDS011;73092;49.132;8.920;2023-12-07T05:27:29;45.50;;;14.82;;
83199;SDS011;73092;49.132;8.920;2023-12-07T05:29:56;39.95;;;15.68;;
83199;SDS011;73092;49.132;8.920;2023-12-07T05:32:21;32.90;;;14.13;;
83199;SDS011;73092;49.132;8.920;2023-12-07T05:34:47;36.33;;;15.95;;
83199;SDS011;73092;49.132;8.920;2023-12-07T05:37:12;41.47;;;14.50;;
83199;SDS011;73092;49.132;8.920;2023-12-07T05:39:37;41.90;;;13.93;;
83199;SDS011;73092;49.132;8.920;2023-12-07T05:42:03;33.93;;;13.57;;
83199;SDS011;73092;49.132;8.920;2023-12-07T05:44:29;32.05;;;12.85;;
83199;SDS011;73092;49.132;8.920;2023-12-07T05:46:55;30.25;;;12.65;;
83199;SDS011;73092;49.132;8.920;2023-12-07T05:49:22;37.97;;;14.98;;
83199;SDS011;73092;49.132;8.920;2023-12-07T05:51:48;32.65;;;14.25;;
83199;SDS011;73092;49.132;8.920;2023-12-07T05:54:14;36.80;;;13.80;;
83199;SDS011;73092;49.132;8.920;2023-12-07T05:56:39;31.85;;;14.13;;
83199;SDS011;73092;49.132;8.920;2023-12-07T05:59:05;40.72;;;13.98;;
83199;SDS011;73092;49.132;8.920;2023-12-07T06:01:31;30.17;;;13.50;;
83199;SDS011;73092;49.132;8.920;2023-12-07T06:03:57;30.77;;;13.27;;
83199;SDS011;73092;49.132;8.920;2023-12-07T06:06:23;32.38;;;14.20;;
83199;SDS011;73092;49.132;8.920;2023-12-07T06:08:48;36.03;;;13.13;;
83199;SDS011;73092;49.132;8.920;2023-12-07T06:11:14;33.73;;;14.37;;
83199;SDS011;73092;49.132;8.920;2023-12-07T06:13:39;40.78;;;14.80;;
83199;SDS011;73092;49.132;8.920;2023-12-07T06:16:05;30.42;;;14.35;;
83199;SDS011;73092;49.132;8.920;2023-12-07T06:18:30;30.63;;;13.15;;
83199;SDS011;73092;49.132;8.920;2023-12-07T06:20:56;27.23;;;13.70;;
83199;SDS011;73092;49.132;8.920;2023-12-07T06:23:21;31.80;;;13.63;;
83199;SDS011;73092;49.132;8.920;2023-12-07T06:25:46;38.78;;;14.77;;
83199;SDS011;73092;49.132;8.920;2023-12-07T06:28:12;38.72;;;14.18;;
83199;SDS011;73092;49.132;8.920;2023-12-07T06:30:37;40.13;;;15.27;;
83199;SDS011;73092;49.132;8.920;2023-12-07T06:33:03;34.53;;;13.32;;
83199;SDS011;73092;49.132;8.920;2023-12-07T06:35:29;33.67;;;13.85;;
83199;SDS011;73092;49.132;8.920;2023-12-07T06:37:55;29.13;;;14.07;;
83199;SDS011;73092;49.132;8.920;2023-12-07T06:40:21;36.05;;;14.88;;
83199;SDS011;73092;49.132;8.920;2023-12-07T06:42:46;32.03;;;13.73;;
83199;SDS011;73092;49.132;8.920;2023-12-07T06:45:13;37.53;;;15.02;;
83199;SDS011;73092;49.132;8.920;2023-12-07T06:47:42;40.15;;;15.07;;
83199;SDS011;73092;49.132;8.920;2023-12-07T06:50:08;31.27;;;13.32;;
83199;SDS011;73092;49.132;8.920;2023-12-07T06:52:37;35.40;;;14.73;;
83199;SDS011;73092;49.132;8.920;2023-12-07T06:55:02;43.40;;;17.40;;
83199;SDS011;73092;49.132;8.920;2023-12-07T06:57:28;41.08;;;15.68;;
83199;SDS011;73092;49.132;8.920;2023-12-07T06:59:53;42.70;;;16.47;;
83199;SDS011;73092;49.132;8.920;2023-12-07T07:02:19;48.63;;;14.60;;
83199;SDS011;73092;49.132;8.920;2023-12-07T07:04:44;42.40;;;16.03;;
83199;SDS011;73092;49.132;8.920;2023-12-07T07:07:09;54.58;;;18.92;;
83199;SDS011;73092;49.132;8.920;2023-12-07T07:09:35;44.73;;;17.57;;
83199;SDS011;73092;49.132;8.920;2023-12-07T07:12:00;54.50;;;18.60;;
83199;SDS011;73092;49.132;8.920;2023-12-07T07:14:26;68.37;;;19.90;;
83199;SDS011;73092;49.132;8.920;2023-12-07T07:16:51;61.83;;;21.00;;
83199;SDS011;73092;49.132;8.920;2023-12-07T07:19:17;59.03;;;19.87;;
83199;SDS011;73092;49.132;8.920;2023-12-07T07:21:43;49.65;;;18.38;;
83199;SDS011;73092;49.132;8.920;2023-12-07T07:24:08;48.75;;;19.17;;
83199;SDS011;73092;49.132;8.920;2023-12-07T07:26:34;76.47;;;20.42;;
83199;SDS011;73092;49.132;8.920;2023-12-07T07:28:59;61.13;;;18.40;;
83199;SDS011;73092;49.132;8.920;2023-12-07T07:31:25;84.10;;;19.83;;
83199;SDS011;73092;49.132;8.920;2023-12-07T07:33:50;48.80;;;17.80;;
83199;SDS011;73092;49.132;8.920;2023-12-07T07:36:16;55.78;;;16.88;;
83199;SDS011;73092;49.132;8.920;2023-12-07T07:38:41;50.47;;;17.47;;
83199;SDS011;73092;49.132;8.920;2023-12-07T07:41:08;61.38;;;19.40;;
83199;SDS011;73092;49.132;8.920;2023-12-07T07:43:34;55.92;;;21.35;;
83199;SDS011;73092;49.132;8.920;2023-12-07T07:45:59;56.87;;;22.40;;
83199;SDS011;73092;49.132;8.920;2023-12-07T07:48:25;73.32;;;20.80;;
83199;SDS011;73092;49.132;8.920;2023-12-07T07:50:51;53.83;;;21.30;;
83199;SDS011;73092;49.132;8.920;2023-12-07T07:53:17;68.00;;;20.75;;
83199;SDS011;73092;49.132;8.920;2023-12-07T07:55:42;68.07;;;21.02;;
83199;SDS011;73092;49.132;8.920;2023-12-07T07:58:07;59.70;;;22.42;;
83199;SDS011;73092;49.132;8.920;2023-12-07T08:00:33;72.27;;;21.70;;
83199;SDS011;73092;49.132;8.920;2023-12-07T08:02:59;58.08;;;20.60;;
83199;SDS011;73092;49.132;8.920;2023-12-07T08:05:25;69.28;;;22.00;;
83199;SDS011;73092;49.132;8.920;2023-12-07T08:07:51;76.40;;;24.00;;
83199;SDS011;73092;49.132;8.920;2023-12-07T08:10:16;81.22;;;24.45;;
83199;SDS011;73092;49.132;8.920;2023-12-07T08:12:42;64.50;;;22.98;;
83199;SDS011;73092;49.132;8.920;2023-12-07T08:15:08;67.50;;;25.15;;
83199;SDS011;73092;49.132;8.920;2023-12-07T08:17:36;78.25;;;26.17;;
83199;SDS011;73092;49.132;8.920;2023-12-07T08:20:06;73.05;;;24.38;;
83199;SDS011;73092;49.132;8.920;2023-12-07T08:22:32;69.82;;;25.75;;
83199;SDS011;73092;49.132;8.920;2023-12-07T08:24:57;63.50;;;22.10;;
83199;SDS011;73092;49.132;8.920;2023-12-07T08:27:23;61.72;;;24.17;;
83199;SDS011;73092;49.132;8.920;2023-12-07T08:29:49;58.10;;;21.20;;
83199;SDS011;73092;49.132;8.920;2023-12-07T08:32:15;69.90;;;21.43;;
83199;SDS011;73092;49.132;8.920;2023-12-07T08:34:41;80.63;;;24.73;;
83199;SDS011;73092;49.132;8.920;2023-12-07T08:37:06;96.37;;;25.37;;
83199;SDS011;73092;49.132;8.920;2023-12-07T08:39:31;70.53;;;23.57;;
83199;SDS011;73092;49.132;8.920;2023-12-07T08:41:57;69.87;;;23.60;;
83199;SDS011;73092;49.132;8.920;2023-12-07T08:44:22;93.33;;;24.27;;
83199;SDS011;73092;49.132;8.920;2023-12-07T08:46:47;103.70;;;24.85;;
83199;SDS011;73092;49.132;8.920;2023-12-07T08:49:13;95.87;;;24.43;;
83199;SDS011;73092;49.132;8.920;2023-12-07T08:51:38;70.60;;;25.60;;
83199;SDS011;73092;49.132;8.920;2023-12-07T08:54:04;81.80;;;26.17;;
83199;SDS011;73092;49.132;8.920;2023-12-07T08:56:30;73.15;;;25.80;;
83199;SDS011;73092;49.132;8.920;2023-12-07T08:58:55;59.97;;;20.93;;
83199;SDS011;73092;49.132;8.920;2023-12-07T09:01:21;51.83;;;20.97;;
83199;SDS011;73092;49.132;8.920;2023-12-07T09:03:46;50.10;;;18.70;;
83199;SDS011;73092;49.132;8.920;2023-12-07T09:06:11;49.20;;;19.07;;
83199;SDS011;73092;49.132;8.920;2023-12-07T09:08:37;51.47;;;22.83;;
83199;SDS011;73092;49.132;8.920;2023-12-07T09:11:02;45.60;;;19.63;;
83199;SDS011;73092;49.132;8.920;2023-12-07T09:13:29;47.80;;;20.88;;
83199;SDS011;73092;49.132;8.920;2023-12-07T09:15:54;47.88;;;19.65;;
83199;SDS011;73092;49.132;8.920;2023-12-07T09:18:20;50.57;;;24.27;;
83199;SDS011;73092;49.132;8.920;2023-12-07T09:20:45;63.00;;;24.57;;
83199;SDS011;73092;49.132;8.920;2023-12-07T09:23:13;56.08;;;22.58;;
83199;SDS011;73092;49.132;8.920;2023-12-07T09:25:42;57.67;;;24.83;;
83199;SDS011;73092;49.132;8.920;2023-12-07T09:28:08;51.80;;;20.65;;
83199;SDS011;73092;49.132;8.920;2023-12-07T09:30:33;50.37;;;20.80;;
83199;SDS011;73092;49.132;8.920;2023-12-07T09:32:59;59.30;;;22.15;;
83199;SDS011;73092;49.132;8.920;2023-12-07T09:35:27;49.75;;;22.42;;
83199;SDS011;73092;49.132;8.920;2023-12-07T09:37:53;63.50;;;21.73;;
83199;SDS011;73092;49.132;8.920;2023-12-07T09:40:19;57.08;;;21.73;;
83199;SDS011;73092;49.132;8.920;2023-12-07T09:42:46;52.45;;;24.58;;
83199;SDS011;73092;49.132;8.920;2023-12-07T09:45:12;60.38;;;26.02;;
83199;SDS011;73092;49.132;8.920;2023-12-07T09:47:39;58.33;;;26.60;;
83199;SDS011;73092;49.132;8.920;2023-12-07T09:50:05;58.08;;;24.70;;
83199;SDS011;73092;49.132;8.920;2023-12-07T09:52:33;43.33;;;19.80;;
83199;SDS011;73092;49.132;8.920;2023-12-07T09:54:59;56.10;;;21.20;;
83199;SDS011;73092;49.132;8.920;2023-12-07T09:57:47;46.55;;;23.05;;
83199;SDS011;73092;49.132;8.920;2023-12-07T10:00:14;43.00;;;19.42;;
83199;SDS011;73092;49.132;8.920;2023-12-07T10:02:40;37.33;;;18.75;;
83199;SDS011;73092;49.132;8.920;2023-12-07T10:05:08;35.65;;;19.83;;
83199;SDS011;73092;49.132;8.920;2023-12-07T10:07:36;41.05;;;20.70;;
83199;SDS011;73092;49.132;8.920;2023-12-07T10:10:04;32.60;;;18.00;;
83199;SDS011;73092;49.132;8.920;2023-12-07T10:12:30;42.95;;;18.38;;
83199;SDS011;73092;49.132;8.920;2023-12-07T10:15:00;39.53;;;21.00;;
83199;SDS011;73092;49.132;8.920;2023-12-07T10:17:47;38.85;;;18.75;;
83199;SDS011;73092;49.132;8.920;2023-12-07T10:20:19;37.55;;;18.77;;
83199;SDS011;73092;49.132;8.920;2023-12-07T10:22:49;33.38;;;17.40;;
83199;SDS011;73092;49.132;8.920;2023-12-07T10:25:32;36.80;;;18.75;;
83199;SDS011;73092;49.132;8.920;2023-12-07T10:28:00;41.47;;;20.20;;
83199;SDS011;73092;49.132;8.920;2023-12-07T10:30:29;38.40;;;20.58;;
83199;SDS011;73092;49.132;8.920;2023-12-07T10:32:54;43.30;;;20.33;;
83199;SDS011;73092;49.132;8.920;2023-12-07T10:35:19;40.87;;;20.20;;
83199;SDS011;73092;49.132;8.920;2023-12-07T10:37:45;35.88;;;18.85;;
83199;SDS011;73092;49.132;8.920;2023-12-07T10:40:12;31.05;;;14.13;;
83199;SDS011;73092;49.132;8.920;2023-12-07T10:42:39;35.60;;;15.38;;
83199;SDS011;73092;49.132;8.920;2023-12-07T10:45:07;29.75;;;15.95;;
83199;SDS011;73092;49.132;8.920;2023-12-07T10:47:37;31.92;;;18.05;;
83199;SDS011;73092;49.132;8.920;2023-12-07T10:50:06;27.88;;;15.77;;
83199;SDS011;73092;49.132;8.920;2023-12-07T10:52:45;32.38;;;16.83;;
83199;SDS011;73092;49.132;8.920;2023-12-07T10:55:16;34.20;;;17.33;;
83199;SDS011;73092;49.132;8.920;2023-12-07T10:57:45;31.48;;;16.98;;
83199;SDS011;73092;49.132;8.920;2023-12-07T11:00:12;30.35;;;15.35;;
83199;SDS011;73092;49.132;8.920;2023-12-07T11:02:37;30.30;;;16.27;;
83199;SDS011;73092;49.132;8.920;2023-12-07T11:05:06;29.85;;;14.75;;
83199;SDS011;73092;49.132;8.920;2023-12-07T11:07:41;41.63;;;22.15;;
83199;SDS011;73092;49.132;8.920;2023-12-07T11:10:25;38.08;;;18.35;;
83199;SDS011;73092;49.132;8.920;2023-12-07T11:13:00;38.38;;;17.50;;
83199;SDS011;73092;49.132;8.920;2023-12-07T11:15:36;34.47;;;17.02;;
83199;SDS011;73092;49.132;8.920;2023-12-07T11:18:02;33.65;;;16.70;;
83199;SDS011;73092;49.132;8.920;2023-12-07T11:23:23;22.48;;;12.70;;
83199;SDS011;73092;49.132;8.920;2023-12-07T11:25:49;28.33;;;14.52;;
83199;SDS011;73092;49.132;8.920;2023-12-07T11:28:17;24.50;;;14.20;;
83199;SDS011;73092;49.132;8.920;2023-12-07T11:30:46;25.13;;;14.32;;
83199;SDS011;73092;49.132;8.920;2023-12-07T11:33:11;26.92;;;14.52;;
83199;SDS011;73092;49.132;8.920;2023-12-07T11:38:27;22.92;;;12.02;;
83199;SDS011;73092;49.132;8.920;2023-12-07T11:40:54;17.90;;;10.05;;
83199;SDS011;73092;49.132;8.920;2023-12-07T11:46:11;17.65;;;9.32;;
83199;SDS011;73092;49.132;8.920;2023-12-07T11:48:37;17.33;;;10.18;;
83199;SDS011;73092;49.132;8.920;2023-12-07T11:51:06;20.07;;;10.93;;
83199;SDS011;73092;49.132;8.920;2023-12-07T11:53:38;19.52;;;11.95;;
83199;SDS011;73092;49.132;8.920;2023-12-07T11:56:04;15.20;;;10.45;;
83199;SDS011;73092;49.132;8.920;2023-12-07T11:58:34;25.73;;;13.80;;
83199;SDS011;73092;49.132;8.920;2023-12-07T12:01:00;19.98;;;11.93;;
83199;SDS011;73092;49.132;8.920;2023-12-07T12:03:26;24.27;;;12.55;;
83199;SDS011;73092;49.132;8.920;2023-12-07T12:05:53;23.45;;;13.10;;
83199;SDS011;73092;49.132;8.920;2023-12-07T12:08:22;17.70;;;10.93;;
83199;SDS011;73092;49.132;8.920;2023-12-07T12:10:49;22.73;;;12.05;;
83199;SDS011;73092;49.132;8.920;2023-12-07T12:13:17;22.25;;;13.05;;
83199;SDS011;73092;49.132;8.920;2023-12-07T12:15:43;27.25;;;14.82;;
83199;SDS011;73092;49.132;8.920;2023-12-07T12:18:12;24.30;;;13.60;;
83199;SDS011;73092;49.132;8.920;2023-12-07T12:20:39;29.13;;;14.77;;
83199;SDS011;73092;49.132;8.920;2023-12-07T12:23:05;19.83;;;12.85;;
83199;SDS011;73092;49.132;8.920;2023-12-07T12:25:30;22.20;;;13.05;;
83199;SDS011;73092;49.132;8.920;2023-12-07T12:28:03;29.10;;;13.00;;
83199;SDS011;73092;49.132;8.920;2023-12-07T12:30:31;25.23;;;12.93;;
83199;SDS011;73092;49.132;8.920;2023-12-07T12:32:57;25.60;;;12.80;;
83199;SDS011;73092;49.132;8.920;2023-12-07T12:35:23;23.15;;;13.40;;
83199;SDS011;73092;49.132;8.920;2023-12-07T12:37:49;24.00;;;13.65;;
83199;SDS011;73092;49.132;8.920;2023-12-07T12:40:18;30.15;;;15.00;;
83199;SDS011;73092;49.132;8.920;2023-12-07T12:42:46;23.30;;;12.50;;
83199;SDS011;73092;49.132;8.920;2023-12-07T12:45:12;22.33;;;12.18;;
83199;SDS011;73092;49.132;8.920;2023-12-07T12:47:39;24.80;;;13.02;;
83199;SDS011;73092;49.132;8.920;2023-12-07T12:50:06;22.30;;;11.80;;
83199;SDS011;73092;49.132;8.920;2023-12-07T12:52:32;22.85;;;13.93;;
83199;SDS011;73092;49.132;8.920;2023-12-07T12:54:58;32.28;;;14.40;;
83199;SDS011;73092;49.132;8.920;2023-12-07T12:57:26;30.27;;;15.02;;
83199;SDS011;73092;49.132;8.920;2023-12-07T12:59:53;23.23;;;13.95;;
83199;SDS011;73092;49.132;8.920;2023-12-07T13:02:19;25.50;;;13.48;;
83199;SDS011;73092;49.132;8.920;2023-12-07T13:04:45;25.63;;;12.70;;
83199;SDS011;73092;49.132;8.920;2023-12-07T13:07:11;21.20;;;10.93;;
83199;SDS011;73092;49.132;8.920;2023-12-07T13:09:37;21.15;;;12.70;;
83199;SDS011;73092;49.132;8.920;2023-12-07T13:12:03;25.73;;;13.98;;
83199;SDS011;73092;49.132;8.920;2023-12-07T13:14:29;27.17;;;13.93;;
83199;SDS011;73092;49.132;8.920;2023-12-07T13:16:54;32.58;;;14.50;;
83199;SDS011;73092;49.132;8.920;2023-12-07T13:19:20;34.75;;;14.55;;
83199;SDS011;73092;49.132;8.920;2023-12-07T13:21:45;31.20;;;15.70;;
83199;SDS011;73092;49.132;8.920;2023-12-07T13:24:11;25.63;;;13.27;;
83199;SDS011;73092;49.132;8.920;2023-12-07T13:26:38;27.05;;;13.98;;
83199;SDS011;73092;49.132;8.920;2023-12-07T13:29:03;26.17;;;13.75;;
83199;SDS011;73092;49.132;8.920;2023-12-07T13:31:29;24.95;;;13.20;;
83199;SDS011;73092;49.132;8.920;2023-12-07T13:33:54;25.90;;;13.13;;
83199;SDS011;73092;49.132;8.920;2023-12-07T13:36:21;25.45;;;13.82;;
83199;SDS011;73092;49.132;8.920;2023-12-07T13:38:49;33.88;;;15.77;;
83199;SDS011;73092;49.132;8.920;2023-12-07T13:41:14;28.17;;;15.77;;
83199;SDS011;73092;49.132;8.920;2023-12-07T13:43:39;38.20;;;18.27;;
83199;SDS011;73092;49.132;8.920;2023-12-07T13:46:06;33.75;;;16.33;;
83199;SDS011;73092;49.132;8.920;2023-12-07T13:48:32;34.55;;;15.68;;
83199;SDS011;73092;49.132;8.920;2023-12-07T13:50:57;30.33;;;16.00;;
83199;SDS011;73092;49.132;8.920;2023-12-07T13:53:23;33.90;;;17.00;;
83199;SDS011;73092;49.132;8.920;2023-12-07T13:55:48;34.10;;;16.30;;
83199;SDS011;73092;49.132;8.920;2023-12-07T13:58:16;32.03;;;14.90;;
83199;SDS011;73092;49.132;8.920;2023-12-07T14:00:41;33.58;;;16.50;;
83199;SDS011;73092;49.132;8.920;2023-12-07T14:03:10;27.27;;;14.80;;
83199;SDS011;73092;49.132;8.920;2023-12-07T14:05:36;26.80;;;14.23;;
83199;SDS011;73092;49.132;8.920;2023-12-07T14:08:02;33.53;;;14.68;;
83199;SDS011;73092;49.132;8.920;2023-12-07T14:10:28;26.27;;;14.98;;
83199;SDS011;73092;49.132;8.920;2023-12-07T14:12:53;26.13;;;13.83;;
83199;SDS011;73092;49.132;8.920;2023-12-07T14:15:18;30.37;;;14.00;;
83199;SDS011;73092;49.132;8.920;2023-12-07T14:17:44;28.93;;;14.20;;
83199;SDS011;73092;49.132;8.920;2023-12-07T14:20:10;26.08;;;14.23;;
83199;SDS011;73092;49.132;8.920;2023-12-07T14:22:36;32.67;;;14.95;;
83199;SDS011;73092;49.132;8.920;2023-12-07T14:25:03;27.73;;;14.05;;
83199;SDS011;73092;49.132;8.920;2023-12-07T14:27:29;29.63;;;14.73;;
83199;SDS011;73092;49.132;8.920;2023-12-07T14:29:54;30.00;;;13.50;;